Language: 


Des rapports , des résumés tant et plus, au choix de chacun....


Données Historiques de Météogheer
Journalier Rapport pour Mars 4, 2018 Unitée:  Les deux    Impériale   Métrique
Suivant Jour »
Journalier Hebdomadaire Mensuel Annuel Sur mesure
  Max: Min: Moyenne:
Température: 52.9 °F /  11.6 °C 34.3 °F /  1.3 °C 39.6 °F /  4.2 °C
Point de rosée: 44.6 °F /  7.0 °C 33.8 °F /  1.0 °C 37.9 °F /  3.3 °C
Humidité: 98% 53% 92%
Vent: 8.5mph /  13.7km/h - 1.6mph /  2.6km/h
Rafales: 11mph /  17.7km/h - -
Vent- - South
Pression: 29.4 in /  994.1 hPa 29.2 in /  988.0 hPa -
Pluie: 0.17 in /  4.3 mm    
Historical Graphs
 
 
Données tabulaires pour Mars 4, 2018
Heure Température Point de rosée Pression Vent Vent Rafales Humidité Pluie Taux (Horaire) Conditions
00:04 36.9 °F /  2.7 °C 33.8 °F /  1.0 °C 29.4in /  994.1hPa Calm   6.3mph /  10.1km/h 89% 0in /  0.0mm
00:09 36.9 °F /  2.7 °C 33.8 °F /  1.0 °C 29.4in /  994.1hPa SSE 3.4mph /  5.5km/h 5.8mph /  9.3km/h 90% 0in /  0.0mm
00:14 37 °F /  2.8 °C 35.6 °F /  2.0 °C 29.3in /  993.1hPa SE 3.6mph /  5.8km/h 6mph /  9.7km/h 91% 0in /  0.0mm
00:19 37 °F /  2.8 °C 35.6 °F /  2.0 °C 29.3in /  993.1hPa SSE 3.6mph /  5.8km/h 7.6mph /  12.2km/h 90% 0in /  0.0mm
00:24 37 °F /  2.8 °C 35.6 °F /  2.0 °C 29.3in /  993.1hPa Calm   7.6mph /  12.2km/h 91% 0in /  0.0mm
00:29 37 °F /  2.8 °C 35.6 °F /  2.0 °C 29.4in /  994.1hPa SE 6mph /  9.7km/h 6.5mph /  10.5km/h 91% 0in /  0.0mm
00:34 36.9 °F /  2.7 °C 33.8 °F /  1.0 °C 29.4in /  994.1hPa SSE 3.6mph /  5.8km/h 6.5mph /  10.5km/h 90% 0in /  0.0mm
00:39 36.9 °F /  2.7 °C 33.8 °F /  1.0 °C 29.4in /  994.1hPa Calm   6mph /  9.7km/h 90% 0in /  0.0mm
00:50 36.7 °F /  2.6 °C 33.8 °F /  1.0 °C 29.3in /  993.1hPa Calm   4.9mph /  7.9km/h 90% 0in /  0.0mm
00:55 36.5 °F /  2.5 °C 33.8 °F /  1.0 °C 29.3in /  993.1hPa SSE 3.4mph /  5.5km/h 5.6mph /  9.0km/h 90% 0in /  0.0mm
01:00 36.5 °F /  2.5 °C 35.6 °F /  2.0 °C 29.4in /  994.1hPa South 4.9mph /  7.9km/h 8.7mph /  14.0km/h 91% 0in /  0.0mm
01:05 36.5 °F /  2.5 °C 35.6 °F /  2.0 °C 29.4in /  994.1hPa Calm   8.7mph /  14.0km/h 92% 0in /  0.0mm
01:10 36.3 °F /  2.4 °C 33.8 °F /  1.0 °C 29.4in /  994.1hPa SSE 4mph /  6.4km/h 6.5mph /  10.5km/h 91% 0in /  0.0mm
01:15 36.3 °F /  2.4 °C 33.8 °F /  1.0 °C 29.4in /  994.1hPa Calm   4mph /  6.4km/h 90% 0in /  0.0mm
01:20 36.1 °F /  2.3 °C 33.8 °F /  1.0 °C 29.4in /  994.1hPa Calm   3.1mph /  5.0km/h 90% 0in /  0.0mm
01:25 36.1 °F /  2.3 °C 33.8 °F /  1.0 °C 29.4in /  994.1hPa Calm   1.3mph /  2.1km/h 90% 0in /  0.0mm
01:30 36.1 °F /  2.3 °C 33.8 °F /  1.0 °C 29.4in /  994.1hPa Calm   1.1mph /  1.8km/h 90% 0in /  0.0mm
01:36 36.1 °F /  2.3 °C 33.8 °F /  1.0 °C 29.4in /  994.1hPa Calm   1.1mph /  1.8km/h 91% 0in /  0.0mm
01:41 36.1 °F /  2.3 °C 33.8 °F /  1.0 °C 29.4in /  994.1hPa Calm     91% 0in /  0.0mm
01:46 36.3 °F /  2.4 °C 33.8 °F /  1.0 °C 29.3in /  993.1hPa Calm     92% 0in /  0.0mm
01:51 36.5 °F /  2.5 °C 35.6 °F /  2.0 °C 29.3in /  993.1hPa Calm   2.9mph /  4.7km/h 92% 0in /  0.0mm
01:56 36.7 °F /  2.6 °C 35.6 °F /  2.0 °C 29.3in /  993.1hPa South 0.9mph /  1.4km/h 4.9mph /  7.9km/h 93% 0in /  0.0mm
02:01 36.7 °F /  2.6 °C 35.6 °F /  2.0 °C 29.3in /  993.1hPa Calm   4.9mph /  7.9km/h 93% 0in /  0.0mm
02:06 36.7 °F /  2.6 °C 35.6 °F /  2.0 °C 29.3in /  993.1hPa Calm   1.1mph /  1.8km/h 92% 0in /  0.0mm
02:11 36.7 °F /  2.6 °C 35.6 °F /  2.0 °C 29.3in /  993.1hPa Calm   1.6mph /  2.6km/h 92% 0in /  0.0mm
02:16 36.9 °F /  2.7 °C 35.6 °F /  2.0 °C 29.3in /  993.1hPa Calm   1.6mph /  2.6km/h 92% 0in /  0.0mm
02:21 36.9 °F /  2.7 °C 35.6 °F /  2.0 °C 29.3in /  993.1hPa Calm   4.7mph /  7.6km/h 93% 0in /  0.0mm
02:26 37 °F /  2.8 °C 35.6 °F /  2.0 °C 29.3in /  993.1hPa Calm   4.7mph /  7.6km/h 93% 0in /  0.0mm
02:31 37 °F /  2.8 °C 35.6 °F /  2.0 °C 29.3in /  993.1hPa Calm   2.9mph /  4.7km/h 93% 0in /  0.0mm
02:36 37.2 °F /  2.9 °C 35.6 °F /  2.0 °C 29.3in /  993.1hPa Calm   3.4mph /  5.5km/h 93% 0in /  0.0mm
02:41 37.2 °F /  2.9 °C 35.6 °F /  2.0 °C 29.3in /  993.1hPa Calm   3.4mph /  5.5km/h 94% 0in /  0.0mm
02:46 37.2 °F /  2.9 °C 35.6 °F /  2.0 °C 29.3in /  993.1hPa SSE 3.1mph /  5.0km/h 3.1mph /  5.0km/h 94% 0in /  0.0mm
02:51 37.4 °F /  3.0 °C 35.6 °F /  2.0 °C 29.3in /  993.1hPa Calm   3.1mph /  5.0km/h 93% 0in /  0.0mm
02:56 37.2 °F /  2.9 °C 35.6 °F /  2.0 °C 29.3in /  993.1hPa Calm   1.6mph /  2.6km/h 94% 0in /  0.0mm
03:01 37.4 °F /  3.0 °C 35.6 °F /  2.0 °C 29.3in /  993.1hPa Calm   3.8mph /  6.1km/h 93% 0in /  0.0mm
03:06 37.4 °F /  3.0 °C 35.6 °F /  2.0 °C 29.3in /  993.1hPa Calm   5.4mph /  8.7km/h 94% 0in /  0.0mm
03:11 37.6 °F /  3.1 °C 35.6 °F /  2.0 °C 29.3in /  993.1hPa Calm   5.4mph /  8.7km/h 94% 0in /  0.0mm
03:16 37.6 °F /  3.1 °C 35.6 °F /  2.0 °C 29.3in /  993.1hPa SSE 2.5mph /  4.0km/h 3.4mph /  5.5km/h 94% 0in /  0.0mm
03:21 37.8 °F /  3.2 °C 37.4 °F /  3.0 °C 29.3in /  993.1hPa Calm   4.3mph /  6.9km/h 94% 0in /  0.0mm
03:26 37.6 °F /  3.1 °C 35.6 °F /  2.0 °C 29.3in /  993.1hPa Calm   4.3mph /  6.9km/h 94% 0in /  0.0mm
03:31 37.4 °F /  3.0 °C 35.6 °F /  2.0 °C 29.3in /  993.1hPa South 4.9mph /  7.9km/h 4.9mph /  7.9km/h 93% 0in /  0.0mm
03:36 37.4 °F /  3.0 °C 35.6 °F /  2.0 °C 29.3in /  993.1hPa Calm   4.9mph /  7.9km/h 93% 0in /  0.0mm
03:41 37.2 °F /  2.9 °C 35.6 °F /  2.0 °C 29.3in /  993.1hPa Calm   4mph /  6.4km/h 93% 0in /  0.0mm
03:46 37 °F /  2.8 °C 35.6 °F /  2.0 °C 29.3in /  993.1hPa Calm   0.9mph /  1.4km/h 93% 0in /  0.0mm
03:51 37 °F /  2.8 °C 35.6 °F /  2.0 °C 29.3in /  993.1hPa Calm   0.9mph /  1.4km/h 93% 0in /  0.0mm
03:56 36.9 °F /  2.7 °C 35.6 °F /  2.0 °C 29.3in /  993.1hPa Calm     93% 0in /  0.0mm
04:01 36.9 °F /  2.7 °C 35.6 °F /  2.0 °C 29.3in /  993.1hPa Calm   0.9mph /  1.4km/h 93% 0in /  0.0mm
04:06 37 °F /  2.8 °C 35.6 °F /  2.0 °C 29.3in /  993.1hPa Calm   4.5mph /  7.2km/h 94% 0in /  0.0mm
04:11 37.2 °F /  2.9 °C 37.4 °F /  3.0 °C 29.3in /  993.1hPa SSE 3.8mph /  6.1km/h 4.5mph /  7.2km/h 96% 0in /  0.0mm
04:16 37 °F /  2.8 °C 37.4 °F /  3.0 °C 29.3in /  992.1hPa Calm   4.7mph /  7.6km/h 96% 0in /  0.0mm
04:21 37 °F /  2.8 °C 37.4 °F /  3.0 °C 29.3in /  992.1hPa Calm   4.7mph /  7.6km/h 96% 0in /  0.0mm
04:26 36.9 °F /  2.7 °C 35.6 °F /  2.0 °C 29.3in /  992.1hPa Calm   2.9mph /  4.7km/h 95% 0in /  0.0mm
04:31 36.9 °F /  2.7 °C 35.6 °F /  2.0 °C 29.3in /  992.1hPa Calm   3.8mph /  6.1km/h 95% 0in /  0.0mm
04:36 36.7 °F /  2.6 °C 35.6 °F /  2.0 °C 29.3in /  992.1hPa Calm   3.8mph /  6.1km/h 95% 0in /  0.0mm
04:41 36.5 °F /  2.5 °C 35.6 °F /  2.0 °C 29.3in /  992.1hPa Calm   3.8mph /  6.1km/h 95% 0in /  0.0mm
04:46 36.5 °F /  2.5 °C 35.6 °F /  2.0 °C 29.3in /  993.1hPa Calm   3.8mph /  6.1km/h 95% 0in /  0.0mm
04:51 36.7 °F /  2.6 °C 37.4 °F /  3.0 °C 29.3in /  993.1hPa WNW 2.2mph /  3.5km/h 5.4mph /  8.7km/h 96% 0in /  0.0mm
04:56 36.7 °F /  2.6 °C 37.4 °F /  3.0 °C 29.3in /  993.1hPa South 0.9mph /  1.4km/h 5.4mph /  8.7km/h 96% 0in /  0.0mm
05:01 36.3 °F /  2.4 °C 35.6 °F /  2.0 °C 29.3in /  992.1hPa South 0.9mph /  1.4km/h 3.8mph /  6.1km/h 96% 0in /  0.0mm
05:07 36.1 °F /  2.3 °C 35.6 °F /  2.0 °C 29.3in /  992.1hPa Calm   3.8mph /  6.1km/h 95% 0in /  0.0mm
05:12 36 °F /  2.2 °C 35.6 °F /  2.0 °C 29.3in /  992.1hPa Calm   2.7mph /  4.3km/h 95% 0in /  0.0mm
05:17 35.8 °F /  2.1 °C 33.8 °F /  1.0 °C 29.3in /  993.1hPa Calm   3.8mph /  6.1km/h 94% 0in /  0.0mm
05:22 35.6 °F /  2.0 °C 33.8 °F /  1.0 °C 29.3in /  993.1hPa Calm   3.8mph /  6.1km/h 94% 0in /  0.0mm
05:27 35.6 °F /  2.0 °C 33.8 °F /  1.0 °C 29.3in /  993.1hPa Calm     94% 0in /  0.0mm
05:32 35.4 °F /  1.9 °C 33.8 °F /  1.0 °C 29.3in /  993.1hPa Calm   0.9mph /  1.4km/h 95% 0in /  0.0mm
05:37 35.4 °F /  1.9 °C 33.8 °F /  1.0 °C 29.3in /  993.1hPa SE 1.6mph /  2.6km/h 2mph /  3.2km/h 95% 0in /  0.0mm
05:42 35.4 °F /  1.9 °C 35.6 °F /  2.0 °C 29.3in /  993.1hPa Calm   2.5mph /  4.0km/h 96% 0in /  0.0mm
05:47 35.4 °F /  1.9 °C 35.6 °F /  2.0 °C 29.3in /  993.1hPa Calm   3.1mph /  5.0km/h 96% 0in /  0.0mm
05:52 35.4 °F /  1.9 °C 35.6 °F /  2.0 °C 29.3in /  993.1hPa Calm   3.1mph /  5.0km/h 96% 0in /  0.0mm
05:57 35.4 °F /  1.9 °C 35.6 °F /  2.0 °C 29.3in /  993.1hPa Calm   2.5mph /  4.0km/h 96% 0in /  0.0mm
06:02 35.4 °F /  1.9 °C 35.6 °F /  2.0 °C 29.3in /  993.1hPa Calm   3.1mph /  5.0km/h 97% 0in /  0.0mm
06:07 35.6 °F /  2.0 °C 35.6 °F /  2.0 °C 29.3in /  993.1hPa Calm   3.1mph /  5.0km/h 96% 0in /  0.0mm
06:12 35.6 °F /  2.0 °C 35.6 °F /  2.0 °C 29.3in /  993.1hPa Calm   0.9mph /  1.4km/h 97% 0in /  0.0mm
06:17 35.4 °F /  1.9 °C 35.6 °F /  2.0 °C 29.3in /  993.1hPa Calm   0.9mph /  1.4km/h 97% 0in /  0.0mm
06:22 35.1 °F /  1.7 °C 33.8 °F /  1.0 °C 29.3in /  993.1hPa Calm   1.3mph /  2.1km/h 96% 0in /  0.0mm
06:27 35.1 °F /  1.7 °C 33.8 °F /  1.0 °C 29.3in /  993.1hPa Calm   1.3mph /  2.1km/h 96% 0in /  0.0mm
06:32 34.9 °F /  1.6 °C 33.8 °F /  1.0 °C 29.3in /  993.1hPa Calm   1.6mph /  2.6km/h 96% 0in /  0.0mm
06:37 34.9 °F /  1.6 °C 33.8 °F /  1.0 °C 29.3in /  993.1hPa Calm   1.6mph /  2.6km/h 96% 0in /  0.0mm
06:42 34.7 °F /  1.5 °C 33.8 °F /  1.0 °C 29.3in /  993.1hPa Calm     96% 0in /  0.0mm
06:47 34.7 °F /  1.5 °C 33.8 °F /  1.0 °C 29.3in /  993.1hPa Calm   3.4mph /  5.5km/h 96% 0in /  0.0mm
06:52 34.7 °F /  1.5 °C 33.8 °F /  1.0 °C 29.3in /  993.1hPa SSW 0.9mph /  1.4km/h 3.4mph /  5.5km/h 96% 0in /  0.0mm
06:58 34.9 °F /  1.6 °C 33.8 °F /  1.0 °C 29.3in /  993.1hPa Calm   2mph /  3.2km/h 96% 0in /  0.0mm
07:02 35.1 °F /  1.7 °C 33.8 °F /  1.0 °C 29.3in /  993.1hPa Calm   1.3mph /  2.1km/h 97% 0in /  0.0mm
07:08 35.1 °F /  1.7 °C 33.8 °F /  1.0 °C 29.3in /  993.1hPa Calm   1.3mph /  2.1km/h 97% 0in /  0.0mm
07:12 35.1 °F /  1.7 °C 33.8 °F /  1.0 °C 29.3in /  993.1hPa Calm     97% 0in /  0.0mm
07:17 35.1 °F /  1.7 °C 33.8 °F /  1.0 °C 29.3in /  993.1hPa Calm     97% 0in /  0.0mm
07:22 34.5 °F /  1.4 °C 33.8 °F /  1.0 °C 29.3in /  993.1hPa Calm     96% 0in /  0.0mm
07:27 34.5 °F /  1.4 °C 33.8 °F /  1.0 °C 29.3in /  993.1hPa Calm     96% 0in /  0.0mm
07:33 34.5 °F /  1.4 °C 33.8 °F /  1.0 °C 29.3in /  993.1hPa Calm     96% 0in /  0.0mm
07:38 34.5 °F /  1.4 °C 33.8 °F /  1.0 °C 29.3in /  993.1hPa Calm     96% 0in /  0.0mm
07:43 34.3 °F /  1.3 °C 33.8 °F /  1.0 °C 29.3in /  993.1hPa Calm     96% 0in /  0.0mm
07:48 34.3 °F /  1.3 °C 33.8 °F /  1.0 °C 29.3in /  993.1hPa Calm     96% 0in /  0.0mm
07:53 34.3 °F /  1.3 °C 33.8 °F /  1.0 °C 29.3in /  993.1hPa Calm     96% 0in /  0.0mm
07:58 34.3 °F /  1.3 °C 33.8 °F /  1.0 °C 29.3in /  993.1hPa Calm     96% 0in /  0.0mm
08:03 34.3 °F /  1.3 °C 33.8 °F /  1.0 °C 29.3in /  993.1hPa Calm     96% 0in /  0.0mm
08:08 34.3 °F /  1.3 °C 33.8 °F /  1.0 °C 29.3in /  993.1hPa Calm   3.6mph /  5.8km/h 96% 0in /  0.0mm
08:13 34.3 °F /  1.3 °C 33.8 °F /  1.0 °C 29.3in /  993.1hPa Calm   3.6mph /  5.8km/h 96% 0in /  0.0mm
08:18 34.3 °F /  1.3 °C 33.8 °F /  1.0 °C 29.3in /  993.1hPa Calm   3.4mph /  5.5km/h 96% 0in /  0.0mm
08:23 34.3 °F /  1.3 °C 33.8 °F /  1.0 °C 29.3in /  993.1hPa Calm   4mph /  6.4km/h 96% 0in /  0.0mm
08:28 37 °F /  2.8 °C 37.4 °F /  3.0 °C 29.3in /  993.1hPa Calm   4mph /  6.4km/h 98% 0in /  0.0mm
08:33 37.6 °F /  3.1 °C 37.4 °F /  3.0 °C 29.3in /  993.1hPa Calm   3.8mph /  6.1km/h 98% 0in /  0.0mm
08:38 38.1 °F /  3.4 °C 37.4 °F /  3.0 °C 29.3in /  993.1hPa Calm   4.9mph /  7.9km/h 98% 0in /  0.0mm
08:43 38.1 °F /  3.4 °C 37.4 °F /  3.0 °C 29.3in /  993.1hPa SE 4.7mph /  7.6km/h 4.9mph /  7.9km/h 98% 0in /  0.0mm
08:48 38.1 °F /  3.4 °C 37.4 °F /  3.0 °C 29.3in /  993.1hPa SSE 5.8mph /  9.3km/h 7.4mph /  11.9km/h 98% 0in /  0.0mm
08:53 38.1 °F /  3.4 °C 37.4 °F /  3.0 °C 29.3in /  993.1hPa SSE 3.4mph /  5.5km/h 7.4mph /  11.9km/h 98% 0in /  0.0mm
08:58 38.1 °F /  3.4 °C 37.4 °F /  3.0 °C 29.3in /  993.1hPa Calm   5.8mph /  9.3km/h 98% 0in /  0.0mm
09:03 40.3 °F /  4.6 °C 39.2 °F /  4.0 °C 29.3in /  993.1hPa South 0.9mph /  1.4km/h 5.8mph /  9.3km/h 97% 0in /  0.0mm
09:08 40.3 °F /  4.6 °C 39.2 °F /  4.0 °C 29.3in /  993.1hPa Calm   5.8mph /  9.3km/h 97% 0in /  0.0mm
09:13 40.3 °F /  4.6 °C 39.2 °F /  4.0 °C 29.3in /  993.1hPa Calm   5.6mph /  9.0km/h 97% 0in /  0.0mm
09:18 40.3 °F /  4.6 °C 39.2 °F /  4.0 °C 29.3in /  993.1hPa Calm   5.6mph /  9.0km/h 97% 0in /  0.0mm
09:23 40.3 °F /  4.6 °C 39.2 °F /  4.0 °C 29.3in /  993.1hPa South 2.7mph /  4.3km/h 6.3mph /  10.1km/h 97% 0in /  0.0mm
09:28 40.3 °F /  4.6 °C 39.2 °F /  4.0 °C 29.3in /  993.1hPa South 3.1mph /  5.0km/h 6.3mph /  10.1km/h 97% 0in /  0.0mm
09:33 40.3 °F /  4.6 °C 39.2 °F /  4.0 °C 29.3in /  993.1hPa SSE 5.4mph /  8.7km/h 5.4mph /  8.7km/h 97% 0in /  0.0mm
09:38 40.3 °F /  4.6 °C 39.2 °F /  4.0 °C 29.3in /  993.1hPa South 6.3mph /  10.1km/h 6.3mph /  10.1km/h 97% 0in /  0.0mm
09:43 40.3 °F /  4.6 °C 39.2 °F /  4.0 °C 29.3in /  993.1hPa SSE 2.7mph /  4.3km/h 6.3mph /  10.1km/h 97% 0in /  0.0mm
09:48 40.3 °F /  4.6 °C 39.2 °F /  4.0 °C 29.3in /  993.1hPa Calm   6.3mph /  10.1km/h 97% 0in /  0.0mm
09:53 40.3 °F /  4.6 °C 39.2 °F /  4.0 °C 29.3in /  993.1hPa Calm   3.4mph /  5.5km/h 97% 0in /  0.0mm
09:58 44.1 °F /  6.7 °C 41 °F /  5.0 °C 29.3in /  993.1hPa SSE 3.6mph /  5.8km/h 6mph /  9.7km/h 85% 0in /  0.0mm
10:10 44.1 °F /  6.7 °C 41 °F /  5.0 °C 29.3in /  993.1hPa South 3.4mph /  5.5km/h 8.5mph /  13.7km/h 85% 0in /  0.0mm
10:20 47.3 °F /  8.5 °C 42.8 °F /  6.0 °C 29.3in /  993.1hPa South 7.4mph /  11.9km/h 7.4mph /  11.9km/h 81% 0in /  0.0mm
10:29 47.3 °F /  8.5 °C 41 °F /  5.0 °C 29.3in /  993.1hPa Calm   8.1mph /  13.0km/h 78% 0in /  0.0mm
10:35 47.8 °F /  8.8 °C 41 °F /  5.0 °C 29.3in /  993.1hPa South 4.3mph /  6.9km/h 6.5mph /  10.5km/h 75% 0in /  0.0mm
10:40 47.8 °F /  8.8 °C 41 °F /  5.0 °C 29.3in /  993.1hPa SSE 2.5mph /  4.0km/h 6.5mph /  10.5km/h 75% 0in /  0.0mm
11:10 52.9 °F /  11.6 °C 37.4 °F /  3.0 °C 29.3in /  993.1hPa South 4mph /  6.4km/h 6.5mph /  10.5km/h 53% 0in /  0.0mm
11:25 49.5 °F /  9.7 °C 37.4 °F /  3.0 °C 29.3in /  993.1hPa South 6mph /  9.7km/h 7.8mph /  12.6km/h 63% 0in /  0.0mm
11:30 48.9 °F /  9.4 °C 37.4 °F /  3.0 °C 29.3in /  992.1hPa SSE 6.3mph /  10.1km/h 7.8mph /  12.6km/h 65% 0in /  0.0mm
11:40 47.8 °F /  8.8 °C 39.2 °F /  4.0 °C 29.3in /  992.1hPa Calm   6.5mph /  10.5km/h 69% 0in /  0.0mm
11:50 47.3 °F /  8.5 °C 39.2 °F /  4.0 °C 29.3in /  992.1hPa Calm   6.3mph /  10.1km/h 71% 0in /  0.0mm
12:00 46.9 °F /  8.3 °C 39.2 °F /  4.0 °C 29.3in /  991.1hPa Calm   4mph /  6.4km/h 73% 0in /  0.0mm
12:10 46.8 °F /  8.2 °C 39.2 °F /  4.0 °C 29.3in /  991.1hPa East 4.5mph /  7.2km/h 4.9mph /  7.9km/h 74% 0in /  0.0mm
12:20 46.8 °F /  8.2 °C 39.2 °F /  4.0 °C 29.2in /  990.1hPa Calm   4.5mph /  7.2km/h 75% 0in /  0.0mm
12:30 46.6 °F /  8.1 °C 39.2 °F /  4.0 °C 29.3in /  991.1hPa SSE 3.8mph /  6.1km/h 6mph /  9.7km/h 75% 0in /  0.0mm
12:40 46.9 °F /  8.3 °C 41 °F /  5.0 °C 29.3in /  991.1hPa SE 3.4mph /  5.5km/h 6mph /  9.7km/h 76% 0in /  0.0mm
12:50 46.9 °F /  8.3 °C 41 °F /  5.0 °C 29.3in /  991.1hPa Calm   4mph /  6.4km/h 76% 0in /  0.0mm
13:00 47.1 °F /  8.4 °C 41 °F /  5.0 °C 29.2in /  990.1hPa SSE 2.9mph /  4.7km/h 5.4mph /  8.7km/h 76% 0in /  0.0mm
13:10 47.1 °F /  8.4 °C 41 °F /  5.0 °C 29.2in /  990.1hPa Calm   7.6mph /  12.2km/h 76% 0in /  0.0mm
13:20 47.1 °F /  8.4 °C 41 °F /  5.0 °C 29.2in /  990.1hPa SSE 4.7mph /  7.6km/h 8.7mph /  14.0km/h 76% 0in /  0.0mm
13:30 46.9 °F /  8.3 °C 41 °F /  5.0 °C 29.2in /  990.1hPa Calm   7.6mph /  12.2km/h 77% 0in /  0.0mm
13:40 46.8 °F /  8.2 °C 41 °F /  5.0 °C 29.2in /  990.1hPa Calm   6mph /  9.7km/h 79% 0in /  0.0mm
13:50 46.8 °F /  8.2 °C 41 °F /  5.0 °C 29.3in /  991.1hPa Calm   7.8mph /  12.6km/h 81% 0in /  0.0mm
14:00 46.6 °F /  8.1 °C 41 °F /  5.0 °C 29.3in /  991.1hPa ESE 6.5mph /  10.5km/h 6.5mph /  10.5km/h 81% 0in /  0.0mm
14:10 46.4 °F /  8.0 °C 41 °F /  5.0 °C 29.3in /  991.1hPa Calm   6.5mph /  10.5km/h 81% 0in /  0.0mm
14:20 46.4 °F /  8.0 °C 42.8 °F /  6.0 °C 29.2in /  990.1hPa Calm   1.6mph /  2.6km/h 82% 0in /  0.0mm
14:30 46.4 °F /  8.0 °C 42.8 °F /  6.0 °C 29.2in /  990.1hPa Calm   1.3mph /  2.1km/h 82% 0.01in /  0.3mm
14:40 46.4 °F /  8.0 °C 42.8 °F /  6.0 °C 29.2in /  990.1hPa Calm   3.6mph /  5.8km/h 83% 0.01in /  0.3mm
14:50 46.2 °F /  7.9 °C 42.8 °F /  6.0 °C 29.2in /  990.1hPa Calm   4.3mph /  6.9km/h 84% 0.01in /  0.3mm
15:00 46.2 °F /  7.9 °C 42.8 °F /  6.0 °C 29.2in /  989.1hPa Calm   1.1mph /  1.8km/h 85% 0.01in /  0.3mm
15:10 46 °F /  7.8 °C 42.8 °F /  6.0 °C 29.2in /  989.1hPa Calm   2.9mph /  4.7km/h 86% 0.01in /  0.3mm
15:20 46 °F /  7.8 °C 42.8 °F /  6.0 °C 29.2in /  990.1hPa Calm   4.9mph /  7.9km/h 87% 0.01in /  0.3mm
15:30 45.9 °F /  7.7 °C 42.8 °F /  6.0 °C 29.2in /  989.1hPa Calm   1.6mph /  2.6km/h 86% 0in /  0.0mm
15:40 45.7 °F /  7.6 °C 42.8 °F /  6.0 °C 29.2in /  989.1hPa Calm   3.1mph /  5.0km/h 87% 0in /  0.0mm
15:50 45.5 °F /  7.5 °C 42.8 °F /  6.0 °C 29.2in /  989.1hPa Calm   1.6mph /  2.6km/h 87% 0in /  0.0mm
16:00 45.3 °F /  7.4 °C 42.8 °F /  6.0 °C 29.2in /  989.1hPa Calm   3.8mph /  6.1km/h 88% 0in /  0.0mm
16:10 45.1 °F /  7.3 °C 42.8 °F /  6.0 °C 29.2in /  989.1hPa Calm   4mph /  6.4km/h 89% 0.01in /  0.3mm
16:20 45 °F /  7.2 °C 42.8 °F /  6.0 °C 29.2in /  989.1hPa ESE 2.5mph /  4.0km/h 4.3mph /  6.9km/h 90% 0.01in /  0.3mm
16:30 44.8 °F /  7.1 °C 42.8 °F /  6.0 °C 29.2in /  989.1hPa Calm   3.1mph /  5.0km/h 90% 0.02in /  0.5mm
16:40 44.6 °F /  7.0 °C 42.8 °F /  6.0 °C 29.2in /  989.1hPa Calm   4.7mph /  7.6km/h 91% 0.02in /  0.5mm
16:50 44.2 °F /  6.8 °C 42.8 °F /  6.0 °C 29.2in /  989.1hPa Calm   5.6mph /  9.0km/h 92% 0.03in /  0.8mm
17:00 44.1 °F /  6.7 °C 42.8 °F /  6.0 °C 29.2in /  989.1hPa Calm   3.8mph /  6.1km/h 92% 0.05in /  1.3mm
17:10 43.9 °F /  6.6 °C 42.8 °F /  6.0 °C 29.2in /  989.1hPa Calm   3.6mph /  5.8km/h 93% 0.05in /  1.3mm
17:20 43.9 °F /  6.6 °C 42.8 °F /  6.0 °C 29.2in /  989.1hPa Calm   6.5mph /  10.5km/h 95% 0.06in /  1.5mm
17:30 43.7 °F /  6.5 °C 42.8 °F /  6.0 °C 29.2in /  989.1hPa Calm     95% 0.06in /  1.5mm
17:45 43.9 °F /  6.6 °C 42.8 °F /  6.0 °C 29.2in /  989.1hPa SSE 3.6mph /  5.8km/h 6.5mph /  10.5km/h 97% 0.06in /  1.5mm
17:50 43.9 °F /  6.6 °C 42.8 °F /  6.0 °C 29.2in /  989.1hPa Calm   11mph /  17.7km/h 97% 0.06in /  1.5mm
18:00 43.7 °F /  6.5 °C 44.6 °F /  7.0 °C 29.2in /  989.1hPa South 5.6mph /  9.0km/h 9.8mph /  15.8km/h 98% 0.07in /  1.8mm
18:10 43.5 °F /  6.4 °C 42.8 °F /  6.0 °C 29.2in /  989.1hPa SSW 4.5mph /  7.2km/h 9.8mph /  15.8km/h 98% 0.07in /  1.8mm
18:20 43.3 °F /  6.3 °C 42.8 °F /  6.0 °C 29.2in /  989.1hPa Calm   7.6mph /  12.2km/h 98% 0.06in /  1.5mm
18:30 43 °F /  6.1 °C 42.8 °F /  6.0 °C 29.2in /  989.1hPa WSW 8.5mph /  13.7km/h 8.7mph /  14.0km/h 98% 0.06in /  1.5mm
18:40 42.4 °F /  5.8 °C 42.8 °F /  6.0 °C 29.2in /  989.1hPa SW 7.4mph /  11.9km/h 8.1mph /  13.0km/h 98% 0.05in /  1.3mm
18:50 42.1 °F /  5.6 °C 42.8 °F /  6.0 °C 29.2in /  989.1hPa SW 6.3mph /  10.1km/h 6.5mph /  10.5km/h 98% 0.03in /  0.8mm
19:00 41.7 °F /  5.4 °C 42.8 °F /  6.0 °C 29.2in /  988.0hPa SW 4mph /  6.4km/h 7.8mph /  12.6km/h 98% 0.02in /  0.5mm
19:10 41.7 °F /  5.4 °C 42.8 °F /  6.0 °C 29.2in /  988.0hPa SW 4.9mph /  7.9km/h 10.1mph /  16.3km/h 98% 0.01in /  0.3mm
19:20 41.7 °F /  5.4 °C 42.8 °F /  6.0 °C 29.2in /  989.1hPa SW 5.6mph /  9.0km/h 8.9mph /  14.3km/h 98% 0.01in /  0.3mm
19:30 41.5 °F /  5.3 °C 42.8 °F /  6.0 °C 29.2in /  989.1hPa WSW 6mph /  9.7km/h 7.6mph /  12.2km/h 98% 0in /  0.0mm
19:40 41.4 °F /  5.2 °C 41 °F /  5.0 °C 29.2in /  989.1hPa WSW 5.4mph /  8.7km/h 7.6mph /  12.2km/h 98% 0in /  0.0mm
19:50 41 °F /  5.0 °C 41 °F /  5.0 °C 29.2in /  989.1hPa SW 8.5mph /  13.7km/h 8.5mph /  13.7km/h 98% 0in /  0.0mm
20:00 40.6 °F /  4.8 °C 41 °F /  5.0 °C 29.2in /  989.1hPa SW 4.9mph /  7.9km/h 7.8mph /  12.6km/h 98% 0in /  0.0mm
20:10 40.5 °F /  4.7 °C 41 °F /  5.0 °C 29.2in /  989.1hPa SSW 3.8mph /  6.1km/h 7.8mph /  12.6km/h 98% 0in /  0.0mm
20:20 40.3 °F /  4.6 °C 41 °F /  5.0 °C 29.2in /  988.0hPa SSW 5.6mph /  9.0km/h 8.5mph /  13.7km/h 98% 0in /  0.0mm
20:30 40.3 °F /  4.6 °C 41 °F /  5.0 °C 29.2in /  989.1hPa WSW 6mph /  9.7km/h 10.1mph /  16.3km/h 98% 0in /  0.0mm
20:40 40.3 °F /  4.6 °C 41 °F /  5.0 °C 29.2in /  989.1hPa SW 7.4mph /  11.9km/h 9.6mph /  15.4km/h 98% 0in /  0.0mm
20:50 40.3 °F /  4.6 °C 41 °F /  5.0 °C 29.2in /  989.1hPa WSW 6.3mph /  10.1km/h 7.8mph /  12.6km/h 98% 0in /  0.0mm
21:00 40.3 °F /  4.6 °C 41 °F /  5.0 °C 29.2in /  990.1hPa SSW 4.5mph /  7.2km/h 7.4mph /  11.9km/h 98% 0.01in /  0.3mm
21:10 40.3 °F /  4.6 °C 41 °F /  5.0 °C 29.2in /  990.1hPa SW 4.9mph /  7.9km/h 6.3mph /  10.1km/h 98% 0.01in /  0.3mm
21:20 40.5 °F /  4.7 °C 41 °F /  5.0 °C 29.2in /  990.1hPa SSW 4.9mph /  7.9km/h 10.1mph /  16.3km/h 98% 0.01in /  0.3mm
21:30 40.6 °F /  4.8 °C 41 °F /  5.0 °C 29.2in /  990.1hPa SW 4.3mph /  6.9km/h 7.6mph /  12.2km/h 98% 0.01in /  0.3mm
21:45 40.5 °F /  4.7 °C 41 °F /  5.0 °C 29.2in /  990.1hPa SSW 2.9mph /  4.7km/h 6.5mph /  10.5km/h 98% 0.01in /  0.3mm
21:50 40.5 °F /  4.7 °C 41 °F /  5.0 °C 29.3in /  991.1hPa SSW 2mph /  3.2km/h 6.9mph /  11.1km/h 98% 0.01in /  0.3mm
22:00 40.1 °F /  4.5 °C 41 °F /  5.0 °C 29.3in /  991.1hPa South 4mph /  6.4km/h 6.5mph /  10.5km/h 98% 0in /  0.0mm
22:10 39.7 °F /  4.3 °C 39.2 °F /  4.0 °C 29.3in /  991.1hPa Calm   5.4mph /  8.7km/h 98% 0in /  0.0mm
22:20 39.6 °F /  4.2 °C 39.2 °F /  4.0 °C 29.3in /  991.1hPa Calm   4.9mph /  7.9km/h 98% 0in /  0.0mm
22:34 39.4 °F /  4.1 °C 39.2 °F /  4.0 °C 29.3in /  991.1hPa SSW 3.4mph /  5.5km/h 3.4mph /  5.5km/h 98% 0in /  0.0mm
22:40 39.4 °F /  4.1 °C 39.2 °F /  4.0 °C 29.3in /  991.1hPa South 4mph /  6.4km/h 4mph /  6.4km/h 98% 0in /  0.0mm
22:50 39.9 °F /  4.4 °C 39.2 °F /  4.0 °C 29.2in /  990.1hPa South 4.3mph /  6.9km/h 8.1mph /  13.0km/h 98% 0in /  0.0mm
23:00 40.3 °F /  4.6 °C 41 °F /  5.0 °C 29.2in /  990.1hPa South 4.9mph /  7.9km/h 9.2mph /  14.8km/h 98% 0in /  0.0mm
23:10 40.1 °F /  4.5 °C 41 °F /  5.0 °C 29.2in /  990.1hPa SSW 4mph /  6.4km/h 8.5mph /  13.7km/h 98% 0in /  0.0mm
23:20 40.3 °F /  4.6 °C 41 °F /  5.0 °C 29.3in /  991.1hPa South 4.3mph /  6.9km/h 9.6mph /  15.4km/h 98% 0in /  0.0mm
23:30 40.3 °F /  4.6 °C 41 °F /  5.0 °C 29.3in /  991.1hPa SSW 7.2mph /  11.6km/h 7.2mph /  11.6km/h 98% 0in /  0.0mm
23:40 40.3 °F /  4.6 °C 41 °F /  5.0 °C 29.3in /  991.1hPa Calm   7.2mph /  11.6km/h 98% 0in /  0.0mm
23:50 40.3 °F /  4.6 °C 41 °F /  5.0 °C 29.3in /  991.1hPa Calm     98% 0in /  0.0mm
Données Historique de Météo Turbie

Mise a jour : 23/06/2018 11:51:14
Généré par Cumulus 1.9.4 (1099)